createdAt,value
2017-11-12T00:00:33.688Z,90.40
2017-11-12T00:03:02.973Z,90.60
2017-11-12T00:05:32.974Z,90.80
2017-11-12T00:08:02.277Z,90.80
2017-11-12T00:10:31.504Z,90.80
2017-11-12T00:13:00.746Z,90.90
2017-11-12T00:15:30.015Z,90.70
2017-11-12T00:17:59.276Z,90.40
2017-11-12T00:20:28.529Z,90.50
2017-11-12T00:22:57.766Z,90.50
2017-11-12T00:25:27.039Z,90.40
2017-11-12T00:27:56.272Z,90.20
2017-11-12T00:30:25.557Z,90.30
2017-11-12T00:32:54.796Z,90.30
2017-11-12T00:35:24.809Z,90.40
2017-11-12T00:37:54.822Z,90.50
2017-11-12T00:40:24.840Z,90.40
2017-11-12T00:42:54.864Z,90.40
2017-11-12T00:45:24.876Z,90.50
2017-11-12T00:47:54.927Z,90.50
2017-11-12T00:50:24.192Z,90.50
2017-11-12T00:52:54.219Z,90.30
2017-11-12T00:55:24.233Z,90.30
2017-11-12T00:57:54.260Z,90.10
2017-11-12T01:00:24.282Z,90.30
2017-11-12T01:02:53.509Z,90.30
2017-11-12T01:05:22.740Z,90.40
2017-11-12T01:07:51.998Z,90.50
2017-11-12T01:10:22.038Z,90.00
2017-11-12T01:12:51.272Z,90.00
2017-11-12T01:15:20.505Z,90.00
2017-11-12T01:17:49.769Z,90.20
2017-11-12T01:20:19.010Z,90.00
2017-11-12T01:22:48.248Z,90.20
2017-11-12T01:25:17.592Z,90.20
2017-11-12T01:27:47.598Z,90.10
2017-11-12T01:30:16.877Z,90.10
2017-11-12T01:32:48.088Z,90.00
2017-11-12T01:35:17.326Z,90.00
2017-11-12T01:37:46.576Z,90.00
2017-11-12T01:40:15.860Z,89.90
2017-11-12T01:42:45.120Z,89.60
2017-11-12T01:45:14.354Z,89.80
2017-11-12T01:47:43.630Z,90.00
2017-11-12T01:50:12.867Z,89.80
2017-11-12T01:52:42.145Z,89.80
2017-11-12T01:55:12.140Z,90.00
2017-11-12T01:57:41.398Z,90.20
2017-11-12T02:00:10.689Z,90.00
2017-11-12T02:02:39.925Z,90.10
2017-11-12T02:05:09.981Z,89.70
2017-11-12T02:07:39.217Z,89.60
2017-11-12T02:10:08.466Z,89.90
2017-11-12T02:12:37.728Z,90.20
2017-11-12T02:15:07.754Z,89.90
2017-11-12T02:17:37.790Z,90.40
2017-11-12T02:20:07.053Z,90.00
2017-11-12T02:22:36.292Z,90.00
2017-11-12T02:25:05.513Z,90.00
2017-11-12T02:27:34.795Z,90.20
2017-11-12T02:30:04.023Z,90.10
2017-11-12T02:32:33.272Z,89.80
2017-11-12T02:35:03.318Z,89.70
2017-11-12T02:37:32.612Z,89.70
2017-11-12T02:40:01.849Z,90.00
2017-11-12T02:42:31.131Z,90.00
2017-11-12T02:45:00.364Z,90.20
2017-11-12T02:47:29.583Z,89.90
2017-11-12T02:49:58.849Z,89.80
2017-11-12T02:52:28.086Z,89.30
2017-11-12T02:54:58.220Z,88.70
2017-11-12T02:57:27.477Z,88.70
2017-11-12T02:59:56.733Z,88.90
2017-11-12T03:02:25.993Z,88.90
2017-11-12T03:04:55.980Z,89.00
2017-11-12T03:07:25.237Z,88.60
2017-11-12T03:09:54.489Z,88.50
2017-11-12T03:12:23.736Z,87.60
2017-11-12T03:14:52.996Z,87.90
2017-11-12T03:17:22.226Z,88.00
2017-11-12T03:19:52.244Z,87.50
2017-11-12T03:22:21.474Z,87.50
2017-11-12T03:24:50.728Z,88.20
2017-11-12T03:27:20.032Z,88.30
2017-11-12T03:29:50.055Z,88.70
2017-11-12T03:32:19.304Z,88.70
2017-11-12T03:34:48.585Z,89.20
2017-11-12T03:37:17.815Z,88.80
2017-11-12T03:39:47.053Z,88.90
2017-11-12T03:42:17.086Z,87.90
2017-11-12T03:44:46.327Z,87.90
2017-11-12T03:47:15.557Z,88.70
2017-11-12T03:49:45.614Z,88.70
2017-11-12T03:52:14.852Z,88.70
2017-11-12T03:54:44.084Z,88.80
2017-11-12T03:57:14.148Z,88.80
2017-11-12T03:59:43.385Z,88.70
2017-11-12T04:02:12.628Z,88.40
2017-11-12T04:04:42.026Z,89.30
2017-11-12T04:07:11.257Z,90.00
2017-11-12T04:09:40.493Z,89.00
2017-11-12T04:12:09.777Z,88.90
2017-11-12T04:14:39.020Z,88.90
2017-11-12T04:17:08.255Z,88.90
2017-11-12T04:19:37.542Z,88.80
2017-11-12T04:22:06.792Z,88.80
2017-11-12T04:24:36.025Z,88.90
2017-11-12T04:27:05.288Z,89.70
2017-11-12T04:29:34.521Z,89.90
2017-11-12T04:32:03.779Z,89.40
2017-11-12T04:34:33.033Z,90.00
2017-11-12T04:37:02.264Z,89.70
2017-11-12T04:39:31.540Z,90.00
2017-11-12T04:42:00.768Z,89.30
2017-11-12T04:44:30.000Z,88.90
2017-11-12T04:46:59.290Z,88.90
2017-11-12T04:49:28.513Z,88.80
2017-11-12T04:51:57.749Z,88.10
2017-11-12T04:54:27.035Z,87.80
2017-11-12T04:56:56.271Z,88.40
2017-11-12T04:59:25.526Z,88.10
2017-11-12T05:01:54.781Z,89.30
2017-11-12T05:04:24.052Z,88.60
2017-11-12T05:06:53.283Z,88.60
2017-11-12T05:09:23.412Z,90.00
2017-11-12T05:11:53.425Z,89.40
2017-11-12T05:14:23.461Z,89.30
2017-11-12T05:16:52.727Z,89.30
2017-11-12T05:19:21.956Z,88.90
2017-11-12T05:21:51.196Z,89.80
2017-11-12T05:24:20.466Z,89.90
2017-11-12T05:26:50.480Z,89.90
2017-11-12T05:29:19.749Z,89.90
2017-11-12T05:31:49.044Z,89.80
2017-11-12T05:34:18.280Z,89.70
2017-11-12T05:36:47.552Z,89.70
2017-11-12T05:39:16.805Z,89.60
2017-11-12T05:41:46.075Z,89.40
2017-11-12T05:44:16.111Z,89.10
2017-11-12T05:46:45.342Z,89.00
2017-11-12T05:49:14.568Z,89.40
2017-11-12T05:51:43.832Z,89.70
2017-11-12T05:54:13.067Z,89.50
2017-11-12T05:56:42.353Z,89.40
2017-11-12T05:59:11.586Z,88.80
2017-11-12T06:01:41.603Z,88.10
2017-11-12T06:04:10.861Z,88.10
2017-11-12T06:06:40.161Z,88.40
2017-11-12T06:09:09.408Z,88.40
2017-11-12T06:11:38.665Z,88.70
2017-11-12T06:14:07.973Z,89.10
2017-11-12T06:16:37.220Z,88.40
2017-11-12T06:19:06.463Z,88.80
2017-11-12T06:21:35.719Z,89.10
2017-11-12T06:24:05.721Z,89.60
2017-11-12T06:26:35.750Z,90.00
2017-11-12T06:29:05.760Z,90.00
2017-11-12T06:31:35.788Z,90.30
2017-11-12T06:34:05.071Z,90.30
2017-11-12T06:36:35.125Z,90.20
2017-11-12T06:39:04.361Z,90.20
2017-11-12T06:41:33.592Z,90.20
2017-11-12T06:44:02.852Z,90.30
2017-11-12T06:46:32.241Z,90.40
2017-11-12T06:49:01.471Z,90.30
2017-11-12T06:51:30.726Z,90.10
2017-11-12T06:54:00.005Z,90.10
2017-11-12T06:56:29.255Z,90.40
2017-11-12T06:58:58.482Z,90.10
2017-11-12T07:01:27.768Z,90.00
2017-11-12T07:03:57.448Z,89.90
2017-11-12T07:06:26.687Z,90.30
2017-11-12T07:08:55.947Z,90.10
2017-11-12T07:11:25.197Z,90.10
2017-11-12T07:13:54.615Z,90.20
2017-11-12T07:16:23.861Z,90.00
2017-11-12T07:18:53.097Z,89.60
2017-11-12T07:21:23.167Z,90.00
2017-11-12T07:23:52.421Z,90.00
2017-11-12T07:26:40.621Z,89.90
2017-11-12T07:29:09.864Z,90.00
2017-11-12T07:31:39.905Z,90.30
2017-11-12T07:34:09.161Z,90.20
2017-11-12T07:36:38.393Z,90.00
2017-11-12T07:39:07.724Z,90.20
2017-11-12T07:41:37.596Z,90.40
2017-11-12T07:44:15.296Z,90.30
2017-11-12T07:46:44.937Z,90.40
2017-11-12T07:49:14.229Z,90.40
2017-11-12T07:51:51.071Z,90.30
2017-11-12T07:54:20.353Z,90.30
2017-11-12T07:56:49.639Z,90.60
2017-11-12T07:59:18.920Z,90.50
2017-11-12T08:01:48.172Z,90.50
2017-11-12T08:04:17.403Z,91.00
2017-11-12T08:06:46.740Z,90.80
2017-11-12T08:09:15.976Z,90.90
2017-11-12T08:11:46.005Z,91.10
2017-11-12T08:14:16.100Z,91.10
2017-11-12T08:16:45.349Z,91.10
2017-11-12T08:19:14.600Z,91.00
2017-11-12T08:21:43.872Z,91.00
2017-11-12T08:24:13.125Z,91.30
2017-11-12T08:26:42.366Z,91.30
2017-11-12T08:29:11.633Z,91.70
2017-11-12T08:31:40.956Z,91.80
2017-11-12T08:34:11.751Z,92.00
2017-11-12T08:36:40.992Z,92.00
2017-11-12T08:39:10.255Z,92.00
2017-11-12T08:41:40.302Z,92.00
2017-11-12T08:44:09.551Z,92.00
2017-11-12T08:46:38.805Z,91.80
2017-11-12T08:49:08.663Z,91.80
2017-11-12T08:51:37.935Z,92.20
2017-11-12T08:54:07.383Z,92.00
2017-11-12T08:56:36.888Z,92.10
2017-11-12T08:59:08.323Z,92.30
2017-11-12T09:01:37.789Z,92.20
2017-11-12T09:04:07.311Z,92.20
2017-11-12T09:06:36.992Z,92.00
2017-11-12T09:09:06.676Z,92.20
2017-11-12T09:11:36.293Z,92.30
2017-11-12T09:14:05.972Z,92.30
2017-11-12T09:16:35.560Z,92.40
2017-11-12T09:19:04.924Z,92.30
2017-11-12T09:21:35.383Z,92.40
2017-11-12T09:24:05.046Z,92.40
2017-11-12T09:26:34.510Z,92.20
2017-11-12T09:29:04.007Z,92.10
2017-11-12T09:31:33.442Z,91.90
2017-11-12T09:34:03.350Z,92.20
2017-11-12T09:36:33.218Z,92.20
2017-11-12T09:39:02.692Z,92.10
2017-11-12T09:41:31.972Z,92.10
2017-11-12T09:44:01.223Z,92.60
2017-11-12T09:46:30.697Z,92.20
2017-11-12T09:48:59.980Z,92.50
2017-11-12T09:51:29.210Z,92.40
2017-11-12T09:53:59.256Z,92.60
2017-11-12T09:56:29.254Z,92.40
2017-11-12T09:58:58.490Z,92.40
2017-11-12T10:01:27.748Z,92.70
2017-11-12T10:07:11.925Z,92.20
2017-11-12T10:09:41.286Z,92.20
2017-11-12T10:12:11.317Z,92.50
2017-11-12T10:14:40.571Z,92.50
2017-11-12T10:17:09.806Z,92.10
2017-11-12T10:19:39.361Z,92.20
2017-11-12T10:22:08.741Z,92.10
2017-11-12T10:24:38.733Z,92.20
2017-11-12T10:27:08.092Z,92.20
2017-11-12T10:29:37.363Z,92.30
2017-11-12T10:32:06.933Z,92.00
2017-11-12T10:34:36.185Z,92.00
2017-11-12T10:37:05.467Z,92.10
2017-11-12T10:39:34.701Z,92.20
2017-11-12T10:42:03.969Z,92.20
2017-11-12T10:44:33.985Z,92.10
2017-11-12T10:47:03.302Z,92.10
2017-11-12T10:49:33.857Z,92.10
2017-11-12T10:52:03.171Z,91.80
2017-11-12T10:54:32.485Z,91.90
2017-11-12T10:57:01.814Z,92.10
2017-11-12T10:59:31.810Z,92.30
2017-11-12T11:02:01.053Z,92.50
2017-11-12T11:04:30.312Z,92.70
2017-11-12T11:06:59.621Z,92.80
2017-11-12T11:09:28.974Z,92.80
2017-11-12T11:11:58.310Z,92.80
2017-11-12T11:14:27.577Z,92.90
2017-11-12T11:16:56.948Z,92.80
2017-11-12T11:19:26.959Z,92.90
2017-11-12T11:21:57.073Z,92.90
2017-11-12T11:24:26.358Z,92.80
2017-11-12T11:26:55.700Z,92.80
2017-11-12T11:29:25.770Z,93.10
2017-11-12T11:31:55.116Z,93.10
2017-11-12T11:34:25.217Z,93.40
2017-11-12T11:36:54.511Z,93.40
2017-11-12T11:39:23.728Z,93.60
2017-11-12T11:41:53.825Z,93.90
2017-11-12T11:44:23.142Z,93.90
2017-11-12T11:46:52.447Z,94.60
2017-11-12T11:49:22.517Z,96.20
2017-11-12T11:51:51.781Z,96.10
2017-11-12T11:54:21.185Z,96.00
2017-11-12T11:56:50.384Z,96.40
2017-11-12T11:59:19.625Z,96.20
2017-11-12T12:01:48.861Z,95.70
2017-11-12T12:04:18.880Z,95.50
2017-11-12T12:06:48.136Z,95.50
2017-11-12T12:09:17.372Z,95.20
2017-11-12T12:11:47.393Z,94.40
2017-11-12T12:14:17.388Z,94.60
2017-11-12T12:16:46.653Z,94.40
2017-11-12T12:19:15.918Z,93.60
2017-11-12T12:21:45.924Z,92.60
2017-11-12T12:24:16.026Z,92.30
2017-11-12T12:26:46.071Z,92.90
2017-11-12T12:29:16.104Z,92.50
2017-11-12T12:31:46.224Z,93.00
2017-11-12T12:34:15.465Z,93.00
2017-11-12T12:36:44.744Z,93.20
2017-11-12T12:39:13.983Z,93.20
2017-11-12T12:41:43.291Z,93.20
2017-11-12T12:44:12.644Z,93.70
2017-11-12T12:46:41.890Z,93.70
2017-11-12T12:49:11.145Z,93.90
2017-11-12T12:51:40.405Z,94.10
2017-11-12T12:54:10.405Z,88.70
2017-11-12T12:56:39.661Z,88.70
2017-11-12T12:59:08.886Z,90.70
2017-11-12T13:01:38.908Z,91.30
2017-11-12T13:04:08.227Z,91.80
2017-11-12T13:06:37.457Z,92.00
2017-11-12T13:09:06.728Z,92.10
2017-11-12T13:11:35.981Z,92.50
2017-11-12T13:14:05.626Z,92.30
2017-11-12T13:16:34.867Z,92.50
2017-11-12T13:19:04.920Z,92.80
2017-11-12T13:21:34.188Z,92.80
2017-11-12T13:24:04.200Z,91.90
2017-11-12T13:26:34.210Z,92.30
2017-11-12T13:29:03.451Z,92.20
2017-11-12T13:31:32.680Z,92.00
2017-11-12T13:34:01.928Z,92.30
2017-11-12T13:36:31.148Z,92.50
2017-11-12T13:39:00.421Z,92.00
2017-11-12T13:41:29.647Z,92.00
2017-11-12T13:43:58.885Z,91.60
2017-11-12T13:46:28.112Z,91.70
2017-11-12T13:49:01.773Z,91.10
2017-11-12T13:51:31.000Z,91.00
2017-11-12T13:54:01.041Z,91.20
2017-11-12T13:56:30.275Z,91.20
2017-11-12T13:58:59.540Z,91.00
2017-11-12T14:01:29.546Z,91.10
2017-11-12T14:03:59.550Z,90.70
2017-11-12T14:06:28.823Z,90.70
2017-11-12T14:09:02.523Z,91.40
2017-11-12T14:11:31.820Z,91.30
2017-11-12T14:14:01.058Z,90.30
2017-11-12T14:16:30.311Z,91.10
2017-11-12T14:18:59.568Z,90.60
2017-11-12T14:21:30.136Z,90.80
2017-11-12T14:23:59.415Z,90.80
2017-11-12T14:26:28.659Z,90.50
2017-11-12T14:28:57.889Z,90.90
2017-11-12T14:31:27.960Z,91.50
2017-11-12T14:33:57.205Z,91.50
2017-11-12T14:36:28.005Z,91.30
2017-11-12T14:38:57.269Z,91.00
2017-11-12T14:41:26.504Z,91.50
2017-11-12T14:43:55.794Z,90.60
2017-11-12T14:46:25.066Z,91.10
2017-11-12T14:48:54.397Z,90.80
2017-11-12T14:51:23.670Z,90.90
2017-11-12T14:53:52.904Z,91.40
2017-11-12T14:56:22.202Z,91.10
2017-11-12T14:58:51.509Z,91.30
2017-11-12T15:01:20.998Z,91.30
2017-11-12T15:03:51.016Z,91.10
2017-11-12T15:06:20.257Z,91.10
2017-11-12T15:08:49.488Z,91.30
2017-11-12T15:11:18.798Z,91.80
2017-11-12T15:13:48.792Z,91.60
2017-11-12T15:16:18.820Z,91.30
2017-11-12T15:18:48.075Z,91.30
2017-11-12T15:21:17.360Z,91.00
2017-11-12T15:23:46.620Z,91.10
2017-11-12T15:26:16.641Z,91.10
2017-11-12T15:28:46.665Z,91.30
2017-11-12T15:31:15.940Z,91.30
2017-11-12T15:33:45.230Z,91.40
2017-11-12T15:36:14.475Z,91.70
2017-11-12T15:38:43.768Z,91.40
2017-11-12T15:41:13.022Z,91.50
2017-11-12T15:43:42.307Z,91.40
2017-11-12T15:46:11.584Z,91.50
2017-11-12T15:48:40.885Z,91.80
2017-11-12T15:51:10.169Z,91.70
2017-11-12T15:53:40.207Z,91.40
2017-11-12T15:56:09.462Z,91.40
2017-11-12T15:58:38.732Z,91.30
2017-11-12T16:01:07.983Z,91.40
2017-11-12T16:03:38.006Z,91.50
2017-11-12T16:06:07.269Z,91.50
2017-11-12T16:08:36.506Z,91.40
2017-11-12T16:11:05.769Z,91.50
2017-11-12T16:13:35.019Z,91.40
2017-11-12T16:16:04.288Z,91.00
2017-11-12T16:18:34.373Z,91.20
2017-11-12T16:21:03.625Z,91.20
2017-11-12T16:23:32.882Z,91.20
2017-11-12T16:26:02.131Z,91.10
2017-11-12T16:28:32.128Z,91.20
2017-11-12T16:31:02.145Z,91.00
2017-11-12T16:33:32.144Z,91.00
2017-11-12T16:36:01.392Z,91.00
2017-11-12T16:38:30.628Z,91.40
2017-11-12T16:40:59.873Z,90.80
2017-11-12T16:43:29.868Z,90.70
2017-11-12T16:45:59.119Z,90.70
2017-11-12T16:48:28.352Z,91.60
2017-11-12T16:50:57.584Z,91.10
2017-11-12T16:53:27.601Z,91.00
2017-11-12T16:55:57.585Z,91.00
2017-11-12T16:58:26.837Z,91.00
2017-11-12T17:00:56.103Z,90.90
2017-11-12T17:03:25.356Z,90.90
2017-11-12T17:05:54.595Z,90.90
2017-11-12T17:08:24.416Z,90.70
2017-11-12T17:10:53.652Z,90.80
2017-11-12T17:13:22.873Z,90.30
2017-11-12T17:15:52.121Z,90.20
2017-11-12T17:18:22.251Z,90.60
2017-11-12T17:20:52.243Z,90.80
2017-11-12T17:23:21.492Z,90.80
2017-11-12T17:25:51.510Z,90.60
2017-11-12T17:28:20.740Z,90.70
2017-11-12T17:30:50.029Z,90.70
2017-11-12T17:33:19.268Z,90.90
2017-11-12T17:35:49.301Z,90.60
2017-11-12T17:38:19.335Z,90.80
2017-11-12T17:40:49.321Z,90.50
2017-11-12T17:43:19.394Z,90.40
2017-11-12T17:45:48.613Z,90.30
2017-11-12T17:48:17.853Z,90.20
2017-11-12T17:50:47.885Z,90.30
2017-11-12T17:53:17.122Z,90.30
2017-11-12T17:55:46.343Z,90.60
2017-11-12T17:58:15.619Z,90.60
2017-11-12T18:00:44.936Z,90.60
2017-11-12T18:03:14.173Z,90.10
2017-11-12T18:05:44.220Z,90.20
2017-11-12T18:08:13.453Z,90.30
2017-11-12T18:10:42.684Z,90.60
2017-11-12T18:13:11.944Z,90.30
2017-11-12T18:15:41.198Z,90.30
2017-11-12T18:18:10.448Z,90.60
2017-11-12T18:20:39.744Z,90.70
2017-11-12T18:23:08.997Z,90.50
2017-11-12T18:25:38.298Z,90.00
2017-11-12T18:28:07.527Z,90.00
2017-11-12T18:30:36.761Z,90.20
2017-11-12T18:33:06.052Z,89.30
2017-11-12T18:35:35.304Z,89.70
2017-11-12T18:38:05.513Z,90.20
2017-11-12T18:40:35.556Z,90.20
2017-11-12T18:43:04.785Z,90.20
2017-11-12T18:45:34.040Z,89.30
2017-11-12T18:48:04.063Z,88.30
2017-11-12T18:50:33.297Z,88.20
2017-11-12T18:53:02.544Z,88.10
2017-11-12T18:55:36.435Z,89.60
2017-11-12T18:58:06.834Z,87.70
2017-11-12T19:00:41.665Z,87.10
2017-11-12T19:03:13.125Z,87.50
2017-11-12T19:05:47.928Z,86.50
2017-11-12T19:08:19.521Z,87.50
2017-11-12T19:10:48.854Z,86.20
2017-11-12T19:13:18.906Z,86.00
2017-11-12T19:15:48.274Z,86.00
2017-11-12T19:18:19.977Z,85.20
2017-11-12T19:20:54.890Z,84.70
2017-11-12T19:23:30.758Z,85.30
2017-11-12T19:26:02.016Z,83.70
2017-11-12T19:28:33.217Z,84.10
2017-11-12T19:31:03.359Z,84.70
2017-11-12T19:33:32.883Z,84.60
2017-11-12T19:36:02.346Z,83.70
2017-11-12T19:38:33.846Z,83.80
2017-11-12T19:41:04.960Z,83.90
2017-11-12T19:43:37.598Z,85.50
2017-11-12T19:46:07.397Z,85.50
2017-11-12T19:48:36.913Z,85.10
2017-11-12T19:51:07.372Z,83.80
2017-11-12T19:53:36.863Z,83.70
2017-11-12T19:56:07.096Z,84.10
2017-11-12T19:58:43.688Z,83.90
2017-11-12T20:01:13.207Z,83.20
2017-11-12T20:03:42.740Z,84.50
2017-11-12T20:06:12.265Z,84.20
2017-11-12T20:08:41.659Z,83.80
2017-11-12T20:11:11.087Z,83.60
2017-11-12T20:13:41.358Z,82.30
2017-11-12T20:16:10.712Z,82.40
2017-11-12T20:18:40.967Z,83.70
2017-11-12T20:21:10.441Z,83.70
2017-11-12T20:23:39.777Z,83.80
2017-11-12T20:26:09.136Z,84.30
2017-11-12T20:28:38.379Z,83.10
2017-11-12T20:31:07.675Z,83.70
2017-11-12T20:33:36.941Z,84.50
2017-11-12T20:36:06.933Z,83.10
2017-11-12T20:38:36.225Z,83.20
2017-11-12T20:41:05.469Z,83.40
2017-11-12T20:43:34.717Z,83.10
2017-11-12T20:46:03.981Z,83.40
2017-11-12T20:48:33.281Z,83.30
2017-11-12T20:51:03.296Z,82.90
2017-11-12T20:53:32.543Z,83.90
2017-11-12T20:56:01.777Z,83.50
2017-11-12T20:58:31.792Z,83.40
2017-11-12T21:01:01.834Z,83.00
2017-11-12T21:03:31.432Z,83.00
2017-11-12T21:06:01.041Z,83.50
2017-11-12T21:08:30.392Z,85.10
2017-11-12T21:10:59.625Z,83.80
2017-11-12T21:13:29.660Z,82.20
2017-11-12T21:16:00.867Z,82.20
2017-11-12T21:18:30.145Z,83.10
2017-11-12T21:21:01.847Z,83.50
2017-11-12T21:23:34.825Z,83.20
2017-11-12T21:26:04.231Z,83.20
2017-11-12T21:28:48.379Z,83.00
2017-11-12T21:31:18.388Z,81.90
2017-11-12T21:33:49.538Z,83.60
2017-11-12T21:36:21.432Z,84.00
2017-11-12T21:38:51.447Z,84.60
2017-11-12T21:41:20.705Z,84.60
2017-11-12T21:43:50.666Z,83.60
2017-11-12T21:46:19.921Z,83.60
2017-11-12T21:48:49.445Z,83.60
2017-11-12T21:51:19.468Z,83.50
2017-11-12T21:53:49.464Z,84.10
2017-11-12T21:56:18.729Z,84.10
2017-11-12T21:58:47.949Z,83.90
2017-11-12T22:01:17.237Z,84.30
2017-11-12T22:03:46.465Z,84.00
2017-11-12T22:06:15.685Z,83.70
2017-11-12T22:08:45.697Z,83.20
2017-11-12T22:11:14.967Z,83.10
2017-11-12T22:13:44.202Z,83.80
2017-11-12T22:16:14.212Z,83.60
2017-11-12T22:18:44.204Z,84.80
2017-11-12T22:21:13.476Z,84.80
2017-11-12T22:23:42.710Z,84.90
2017-11-12T22:26:11.947Z,83.70
2017-11-12T22:28:41.984Z,84.20
2017-11-12T22:31:11.209Z,84.10
2017-11-12T22:33:41.304Z,84.50
2017-11-12T22:36:11.309Z,84.40
2017-11-12T22:38:40.557Z,84.30
2017-11-12T22:41:09.825Z,83.80
2017-11-12T22:43:39.056Z,84.20
2017-11-12T22:46:08.312Z,85.10
2017-11-12T22:48:37.546Z,84.30
2017-11-12T22:51:06.844Z,85.40
2017-11-12T22:53:36.065Z,85.30
2017-11-12T22:56:05.300Z,85.70
2017-11-12T22:58:34.555Z,85.70
2017-11-12T23:01:03.797Z,86.20
2017-11-12T23:03:33.840Z,86.70
2017-11-12T23:06:03.064Z,86.00
2017-11-12T23:08:32.292Z,86.00
2017-11-12T23:11:01.540Z,86.20
2017-11-12T23:13:30.925Z,86.50
2017-11-12T23:16:00.909Z,85.60
2017-11-12T23:18:30.172Z,85.60
2017-11-12T23:20:59.443Z,85.30
2017-11-12T23:23:28.667Z,85.90
2017-11-12T23:25:57.909Z,86.30
2017-11-12T23:28:27.132Z,86.30
2017-11-12T23:30:57.160Z,86.30
2017-11-12T23:33:26.395Z,86.20
2017-11-12T23:35:55.620Z,86.70
2017-11-12T23:38:24.881Z,86.80
2017-11-12T23:40:54.109Z,87.10
2017-11-12T23:43:23.337Z,86.50
2017-11-12T23:45:53.511Z,86.40
2017-11-12T23:48:22.730Z,86.40
2017-11-12T23:50:51.970Z,87.00
2017-11-12T23:53:21.237Z,87.10
2017-11-12T23:55:50.474Z,87.20
2017-11-12T23:58:19.688Z,87.20
